createdAt,value
2018-09-10T00:00:26.757Z,17.10
2018-09-10T00:02:55.078Z,17.00
2018-09-10T00:05:23.415Z,16.90
2018-09-10T00:07:51.768Z,16.90
2018-09-10T00:10:20.172Z,16.80
2018-09-10T00:12:48.511Z,16.70
2018-09-10T00:15:16.854Z,16.80
2018-09-10T00:17:45.180Z,16.80
2018-09-10T00:20:13.535Z,16.80
2018-09-10T00:22:42.054Z,16.90
2018-09-10T00:25:10.447Z,16.90
2018-09-10T00:27:38.790Z,16.90
2018-09-10T00:30:07.178Z,16.90
2018-09-10T00:32:35.578Z,16.80
2018-09-10T00:35:04.018Z,16.60
2018-09-10T00:37:32.361Z,16.50
2018-09-10T00:40:00.682Z,16.40
2018-09-10T00:42:28.995Z,16.40
2018-09-10T00:44:57.293Z,16.50
2018-09-10T00:47:25.625Z,16.50
2018-09-10T00:49:53.956Z,16.50
2018-09-10T00:52:22.301Z,16.50
2018-09-10T00:54:50.609Z,16.60
2018-09-10T00:57:18.958Z,16.60
2018-09-10T00:59:47.269Z,16.60
2018-09-10T01:02:15.624Z,16.60
2018-09-10T01:04:43.955Z,16.50
2018-09-10T01:07:12.283Z,16.50
2018-09-10T01:09:40.620Z,16.30
2018-09-10T01:12:08.936Z,16.30
2018-09-10T01:14:37.298Z,16.40
2018-09-10T01:17:05.892Z,16.40
2018-09-10T01:19:34.240Z,16.40
2018-09-10T01:22:02.582Z,16.30
2018-09-10T01:24:30.952Z,16.20
2018-09-10T01:26:59.278Z,16.30
2018-09-10T01:29:27.641Z,16.30
2018-09-10T01:31:55.989Z,16.20
2018-09-10T01:34:29.746Z,16.20
2018-09-10T01:36:58.058Z,16.20
2018-09-10T01:39:26.403Z,16.00
2018-09-10T01:41:54.723Z,15.80
2018-09-10T01:44:23.039Z,15.90
2018-09-10T01:46:51.381Z,16.00
2018-09-10T01:49:19.917Z,16.00
2018-09-10T01:51:48.243Z,15.90
2018-09-10T01:54:16.596Z,15.90
2018-09-10T01:56:44.923Z,16.10
2018-09-10T01:59:13.258Z,15.90
2018-09-10T02:01:41.587Z,15.80
2018-09-10T02:04:09.905Z,15.70
2018-09-10T02:06:38.314Z,15.80
2018-09-10T02:09:07.958Z,15.80
2018-09-10T02:11:36.278Z,15.70
2018-09-10T02:14:04.611Z,15.80
2018-09-10T02:16:32.992Z,15.90
2018-09-10T02:19:01.325Z,15.80
2018-09-10T02:21:29.691Z,15.80
2018-09-10T02:23:58.039Z,15.80
2018-09-10T02:26:26.419Z,15.70
2018-09-10T02:28:56.297Z,15.70
2018-09-10T02:31:24.641Z,15.70
2018-09-10T02:33:52.973Z,15.60
2018-09-10T02:36:21.273Z,15.50
2018-09-10T02:38:49.630Z,15.50
2018-09-10T02:41:18.009Z,15.50
2018-09-10T02:43:46.931Z,15.50
2018-09-10T02:46:15.589Z,15.50
2018-09-10T02:48:43.913Z,15.50
2018-09-10T02:51:12.247Z,15.50
2018-09-10T02:53:40.595Z,15.50
2018-09-10T02:56:08.938Z,15.50
2018-09-10T02:58:37.474Z,15.40
2018-09-10T03:01:05.961Z,15.30
2018-09-10T03:03:34.329Z,15.40
2018-09-10T03:06:02.730Z,15.40
2018-09-10T03:08:31.072Z,15.50
2018-09-10T03:11:00.150Z,15.40
2018-09-10T03:13:28.525Z,15.50
2018-09-10T03:15:56.867Z,15.50
2018-09-10T03:18:25.286Z,15.50
2018-09-10T03:20:53.598Z,15.40
2018-09-10T03:23:21.958Z,15.50
2018-09-10T03:25:50.333Z,15.50
2018-09-10T03:28:18.646Z,15.50
2018-09-10T03:30:47.028Z,15.40
2018-09-10T03:33:15.353Z,15.20
2018-09-10T03:35:43.702Z,15.10
2018-09-10T03:38:12.030Z,15.10
2018-09-10T03:40:40.423Z,15.10
2018-09-10T03:43:08.732Z,15.10
2018-09-10T03:45:37.047Z,15.20
2018-09-10T03:48:05.333Z,15.10
2018-09-10T03:50:33.873Z,15.20
2018-09-10T03:53:02.222Z,15.20
2018-09-10T03:55:30.564Z,15.00
2018-09-10T03:57:58.917Z,14.90
2018-09-10T04:00:27.275Z,14.80
2018-09-10T04:02:55.762Z,14.70
2018-09-10T04:05:24.121Z,14.70
2018-09-10T04:07:52.500Z,14.70
2018-09-10T04:10:20.828Z,14.70
2018-09-10T04:12:49.146Z,14.70
2018-09-10T04:15:17.522Z,14.50
2018-09-10T04:17:45.850Z,14.40
2018-09-10T04:20:14.187Z,14.30
2018-09-10T04:22:42.918Z,14.40
2018-09-10T04:25:11.236Z,14.30
2018-09-10T04:27:39.549Z,14.40
2018-09-10T04:30:12.815Z,14.50
2018-09-10T04:32:41.705Z,14.60
2018-09-10T04:35:10.551Z,14.70
2018-09-10T04:37:39.343Z,14.70
2018-09-10T04:40:07.904Z,14.70
2018-09-10T04:42:36.318Z,14.80
2018-09-10T04:45:05.197Z,14.70
2018-09-10T04:47:33.539Z,14.70
2018-09-10T04:50:02.253Z,14.70
2018-09-10T04:52:30.575Z,14.60
2018-09-10T04:54:58.894Z,14.40
2018-09-10T04:57:27.308Z,14.40
2018-09-10T04:59:55.663Z,14.40
2018-09-10T05:02:24.003Z,14.40
2018-09-10T05:04:52.326Z,14.60
2018-09-10T05:07:20.674Z,14.70
2018-09-10T05:09:49.167Z,14.70
2018-09-10T05:12:17.369Z,14.80
2018-09-10T05:14:45.739Z,14.80
2018-09-10T05:17:14.051Z,14.80
2018-09-10T05:19:42.401Z,14.80
2018-09-10T05:22:10.866Z,14.80
2018-09-10T05:24:39.161Z,14.80
2018-09-10T05:27:07.506Z,14.80
2018-09-10T05:29:35.965Z,14.90
2018-09-10T05:32:04.305Z,14.90
2018-09-10T05:34:32.765Z,14.80
2018-09-10T05:37:01.095Z,14.90
2018-09-10T05:39:29.422Z,15.00
2018-09-10T05:41:57.792Z,15.20
2018-09-10T05:44:26.282Z,15.50
2018-09-10T05:46:54.611Z,15.90
2018-09-10T05:49:22.987Z,16.60
2018-09-10T05:51:51.374Z,17.10
2018-09-10T05:54:19.706Z,17.30
2018-09-10T05:56:48.072Z,17.10
2018-09-10T05:59:16.434Z,17.00
2018-09-10T06:01:44.813Z,16.80
2018-09-10T06:04:13.159Z,16.60
2018-09-10T06:06:41.514Z,16.50
2018-09-10T06:09:09.865Z,16.30
2018-09-10T06:11:38.330Z,16.30
2018-09-10T06:14:06.829Z,16.30
2018-09-10T06:16:35.286Z,16.20
2018-09-10T06:19:03.593Z,16.20
2018-09-10T06:21:32.287Z,16.20
2018-09-10T06:24:01.501Z,16.20
2018-09-10T06:26:29.842Z,16.10
2018-09-10T06:28:58.255Z,16.10
2018-09-10T06:31:26.714Z,16.20
2018-09-10T06:33:55.961Z,16.30
2018-09-10T06:36:24.956Z,16.30
2018-09-10T06:38:53.342Z,16.30
2018-09-10T06:41:21.775Z,16.40
2018-09-10T06:43:50.128Z,16.50
2018-09-10T06:46:18.472Z,16.50
2018-09-10T06:48:46.835Z,16.60
2018-09-10T06:51:15.215Z,16.50
2018-09-10T06:53:43.611Z,16.60
2018-09-10T06:56:11.973Z,16.70
2018-09-10T06:58:40.398Z,16.80
2018-09-10T07:01:08.754Z,17.10
2018-09-10T07:03:37.117Z,17.40
2018-09-10T07:06:05.545Z,17.60
2018-09-10T07:08:33.912Z,17.70
2018-09-10T07:11:02.252Z,17.90
2018-09-10T07:13:30.660Z,18.10
2018-09-10T07:15:59.047Z,18.30
2018-09-10T07:18:27.417Z,18.60
2018-09-10T07:20:55.775Z,18.70
2018-09-10T07:23:24.233Z,18.80
2018-09-10T07:25:52.858Z,19.00
2018-09-10T07:28:21.233Z,19.10
2018-09-10T07:30:49.643Z,18.90
2018-09-10T07:33:18.016Z,19.00
2018-09-10T07:35:46.433Z,19.20
2018-09-10T07:38:14.764Z,19.20
2018-09-10T07:40:43.146Z,19.20
2018-09-10T07:43:11.502Z,19.20
2018-09-10T07:45:39.943Z,19.30
2018-09-10T07:48:08.310Z,19.40
2018-09-10T07:50:37.475Z,19.40
2018-09-10T07:53:05.847Z,19.60
2018-09-10T07:55:34.246Z,19.60
2018-09-10T07:58:02.624Z,19.30
2018-09-10T08:00:31.031Z,19.30
2018-09-10T08:02:59.440Z,19.50
2018-09-10T08:05:27.773Z,19.50
2018-09-10T08:07:56.199Z,19.50
2018-09-10T08:10:24.594Z,19.50
2018-09-10T08:12:53.002Z,19.70
2018-09-10T08:15:21.346Z,20.00
2018-09-10T08:17:49.784Z,20.30
2018-09-10T08:20:17.811Z,20.20
2018-09-10T08:22:46.226Z,19.90
2018-09-10T08:25:14.773Z,20.30
2018-09-10T08:27:43.191Z,20.80
2018-09-10T08:30:11.666Z,21.60
2018-09-10T08:32:40.061Z,22.10
2018-09-10T08:35:08.503Z,22.40
2018-09-10T08:37:36.928Z,22.70
2018-09-10T08:40:05.402Z,22.80
2018-09-10T08:42:33.756Z,23.10
2018-09-10T08:45:02.100Z,23.30
2018-09-10T08:47:30.484Z,23.00
2018-09-10T08:49:58.830Z,22.60
2018-09-10T08:52:27.268Z,22.20
2018-09-10T08:54:56.185Z,21.80
2018-09-10T08:57:24.206Z,21.70
2018-09-10T08:59:52.630Z,21.90
2018-09-10T09:02:21.101Z,21.70
2018-09-10T09:04:49.461Z,22.00
2018-09-10T09:07:17.821Z,21.90
2018-09-10T09:09:46.239Z,22.00
2018-09-10T09:12:14.607Z,22.30
2018-09-10T09:14:43.039Z,22.60
2018-09-10T09:17:11.380Z,22.70
2018-09-10T09:19:39.750Z,22.50
2018-09-10T09:22:08.105Z,22.30
2018-09-10T09:24:36.570Z,22.30
2018-09-10T09:27:04.964Z,22.30
2018-09-10T09:29:33.371Z,22.20
2018-09-10T09:32:01.715Z,22.50
2018-09-10T09:34:36.213Z,22.90
2018-09-10T09:37:10.441Z,22.90
2018-09-10T09:39:44.292Z,23.00
2018-09-10T09:42:18.051Z,22.60
2018-09-10T09:47:29.334Z,22.70
2018-09-10T09:49:57.753Z,22.90
2018-09-10T09:52:26.104Z,23.10
2018-09-10T09:54:54.531Z,23.00
2018-09-10T09:57:22.942Z,23.00
2018-09-10T09:59:51.277Z,22.60
2018-09-10T10:02:21.441Z,22.80
2018-09-10T10:04:49.832Z,23.10
2018-09-10T10:07:18.434Z,23.50
2018-09-10T10:09:46.835Z,23.40
2018-09-10T10:12:15.284Z,23.50
2018-09-10T10:14:43.595Z,23.30
2018-09-10T10:17:11.967Z,23.30
2018-09-10T10:19:40.282Z,23.00
2018-09-10T10:22:08.648Z,23.20
2018-09-10T10:24:37.102Z,22.90
2018-09-10T10:27:09.104Z,22.80
2018-09-10T10:29:37.639Z,22.80
2018-09-10T10:32:06.118Z,22.70
2018-09-10T10:34:34.518Z,22.70
2018-09-10T10:37:02.891Z,22.80
2018-09-10T10:39:31.245Z,22.90
2018-09-10T10:41:59.643Z,23.00
2018-09-10T10:44:28.007Z,23.10
2018-09-10T10:46:56.425Z,23.00
2018-09-10T10:49:24.763Z,23.10
2018-09-10T10:51:53.141Z,23.20
2018-09-10T10:54:21.529Z,23.40
2018-09-10T10:56:49.927Z,23.70
2018-09-10T10:59:18.326Z,24.00
2018-09-10T11:01:46.695Z,24.20
2018-09-10T11:04:15.149Z,24.40
2018-09-10T11:06:43.458Z,24.80
2018-09-10T11:09:11.859Z,24.90
2018-09-10T11:11:40.248Z,25.00
2018-09-10T11:14:08.617Z,25.80
2018-09-10T11:16:36.991Z,26.20
2018-09-10T11:19:05.380Z,26.20
2018-09-10T11:21:33.707Z,26.30
2018-09-10T11:24:02.087Z,26.40
2018-09-10T11:26:30.449Z,26.10
2018-09-10T11:28:58.814Z,25.90
2018-09-10T11:31:27.251Z,26.20
2018-09-10T11:33:55.635Z,26.40
2018-09-10T11:36:24.310Z,26.70
2018-09-10T11:38:52.687Z,26.80
2018-09-10T11:41:21.040Z,27.00
2018-09-10T11:43:49.415Z,27.70
2018-09-10T11:46:17.810Z,28.20
2018-09-10T11:48:46.293Z,29.10
2018-09-10T11:51:14.653Z,29.20
2018-09-10T11:53:43.010Z,29.70
2018-09-10T11:56:11.438Z,29.80
2018-09-10T11:58:39.786Z,30.10
2018-09-10T12:01:08.295Z,30.20
2018-09-10T12:03:36.723Z,29.90
2018-09-10T12:06:05.105Z,29.40
2018-09-10T12:08:33.457Z,28.90
2018-09-10T12:11:01.815Z,28.80
2018-09-10T12:13:30.258Z,29.30
2018-09-10T12:15:58.628Z,29.40
2018-09-10T12:18:26.962Z,29.80
2018-09-10T12:20:55.346Z,29.60
2018-09-10T12:23:23.762Z,29.30
2018-09-10T12:25:52.128Z,29.10
2018-09-10T12:28:20.495Z,28.80
2018-09-10T12:30:49.211Z,28.50
2018-09-10T12:33:17.577Z,28.70
2018-09-10T12:35:45.950Z,28.80
2018-09-10T12:38:14.314Z,29.10
2018-09-10T12:40:42.635Z,29.10
2018-09-10T12:43:11.014Z,29.20
2018-09-10T12:45:39.355Z,29.30
2018-09-10T12:48:07.706Z,29.10
2018-09-10T12:50:36.163Z,29.20
2018-09-10T12:53:04.561Z,29.60
2018-09-10T12:55:34.471Z,29.40
2018-09-10T12:58:03.013Z,29.30
2018-09-10T13:00:31.637Z,29.80
2018-09-10T13:03:00.420Z,30.20
2018-09-10T13:05:28.994Z,30.20
2018-09-10T13:07:57.605Z,30.40
2018-09-10T13:10:26.144Z,30.60
2018-09-10T13:12:54.796Z,30.50
2018-09-10T13:15:23.321Z,29.80
2018-09-10T13:17:52.030Z,29.30
2018-09-10T13:20:20.858Z,29.30
2018-09-10T13:22:49.638Z,29.40
2018-09-10T13:25:18.199Z,29.40
2018-09-10T13:27:46.791Z,29.80
2018-09-10T13:30:15.343Z,30.10
2018-09-10T13:32:44.214Z,30.30
2018-09-10T13:35:13.125Z,30.40
2018-09-10T13:37:41.719Z,30.00
2018-09-10T13:40:11.288Z,30.00
2018-09-10T13:42:39.888Z,29.70
2018-09-10T13:45:08.539Z,29.80
2018-09-10T13:47:37.096Z,29.60
2018-09-10T13:50:05.785Z,29.40
2018-09-10T13:52:34.353Z,29.30
2018-09-10T13:55:02.908Z,28.80
2018-09-10T13:57:31.565Z,28.30
2018-09-10T14:00:00.132Z,28.20
2018-09-10T14:02:28.742Z,28.40
2018-09-10T14:04:57.533Z,28.30
2018-09-10T14:07:26.193Z,28.40
2018-09-10T14:09:54.822Z,28.60
2018-09-10T14:12:23.426Z,28.80
2018-09-10T14:14:52.386Z,28.70
2018-09-10T14:17:20.960Z,28.70
2018-09-10T14:19:49.558Z,28.50
2018-09-10T14:22:18.135Z,28.50
2018-09-10T14:24:46.738Z,28.30
2018-09-10T14:27:15.385Z,28.30
2018-09-10T14:29:44.005Z,28.10
2018-09-10T14:32:12.570Z,28.00
2018-09-10T14:34:41.150Z,28.10
2018-09-10T14:37:09.686Z,28.10
2018-09-10T14:39:38.290Z,28.20
2018-09-10T14:42:07.017Z,28.60
2018-09-10T14:44:36.121Z,28.70
2018-09-10T14:47:04.800Z,28.60
2018-09-10T14:49:33.346Z,28.60
2018-09-10T14:52:01.905Z,28.50
2018-09-10T14:54:30.402Z,28.60
2018-09-10T14:56:58.972Z,28.70
2018-09-10T14:59:27.513Z,28.80
2018-09-10T15:01:56.135Z,28.80
2018-09-10T15:04:24.719Z,28.80
2018-09-10T15:06:53.284Z,28.70
2018-09-10T15:09:21.598Z,28.60
2018-09-10T15:11:50.076Z,28.60
2018-09-10T15:14:18.487Z,28.40
2018-09-10T15:16:46.860Z,28.40
2018-09-10T15:19:15.284Z,28.30
2018-09-10T15:21:43.718Z,28.20
2018-09-10T15:24:12.146Z,28.20
2018-09-10T15:26:40.506Z,28.20
2018-09-10T15:29:08.952Z,28.40
2018-09-10T15:31:37.336Z,28.50
2018-09-10T15:34:05.783Z,28.60
2018-09-10T15:36:34.183Z,28.20
2018-09-10T15:39:02.607Z,28.20
2018-09-10T15:41:30.936Z,28.10
2018-09-10T15:43:59.302Z,28.10
2018-09-10T15:46:27.674Z,28.10
2018-09-10T15:48:56.097Z,28.10
2018-09-10T15:51:24.401Z,27.90
2018-09-10T15:53:52.761Z,27.90
2018-09-10T15:56:21.138Z,27.90
2018-09-10T15:58:49.583Z,28.00
2018-09-10T16:01:17.984Z,28.00
2018-09-10T16:03:46.365Z,27.90
2018-09-10T16:06:15.404Z,27.80
2018-09-10T16:08:43.751Z,27.70
2018-09-10T16:11:12.132Z,27.70
2018-09-10T16:13:41.054Z,27.70
2018-09-10T16:16:09.454Z,27.60
2018-09-10T16:18:37.804Z,27.40
2018-09-10T16:21:06.232Z,27.30
2018-09-10T16:23:34.673Z,27.20
2018-09-10T16:26:03.110Z,27.00
2018-09-10T16:28:32.338Z,26.90
2018-09-10T16:31:00.725Z,26.80
2018-09-10T16:33:29.120Z,26.80
2018-09-10T16:36:11.157Z,26.70
2018-09-10T16:38:39.547Z,26.70
2018-09-10T16:41:08.091Z,26.60
2018-09-10T16:43:36.403Z,26.60
2018-09-10T16:46:04.795Z,26.60
2018-09-10T16:48:33.373Z,26.50
2018-09-10T16:51:01.695Z,26.40
2018-09-10T16:53:30.071Z,26.40
2018-09-10T16:55:58.553Z,26.30
2018-09-10T16:58:27.286Z,26.20
2018-09-10T17:00:55.679Z,26.20
2018-09-10T17:03:24.095Z,26.10
2018-09-10T17:05:52.579Z,26.10
2018-09-10T17:08:20.984Z,26.10
2018-09-10T17:10:49.385Z,26.00
2018-09-10T17:13:17.784Z,26.00
2018-09-10T17:15:46.674Z,25.90
2018-09-10T17:18:15.068Z,25.90
2018-09-10T17:20:43.482Z,25.80
2018-09-10T17:23:11.970Z,25.80
2018-09-10T17:25:40.365Z,25.70
2018-09-10T17:28:08.752Z,25.60
2018-09-10T17:30:37.135Z,25.50
2018-09-10T17:33:05.575Z,25.40
2018-09-10T17:35:33.878Z,25.40
2018-09-10T17:38:02.214Z,25.20
2018-09-10T17:40:30.550Z,25.20
2018-09-10T17:42:59.359Z,25.20
2018-09-10T17:45:27.711Z,25.20
2018-09-10T17:47:56.090Z,25.10
2018-09-10T17:50:24.484Z,25.10
2018-09-10T17:52:52.877Z,24.90
2018-09-10T17:55:21.234Z,24.90
2018-09-10T17:57:49.603Z,24.60
2018-09-10T18:00:17.966Z,24.40
2018-09-10T18:02:46.330Z,24.30
2018-09-10T18:05:14.954Z,24.30
2018-09-10T18:07:43.387Z,24.30
2018-09-10T18:10:11.777Z,24.20
2018-09-10T18:12:40.224Z,24.20
2018-09-10T18:15:08.668Z,24.20
2018-09-10T18:17:37.056Z,24.10
2018-09-10T18:20:05.751Z,24.10
2018-09-10T18:22:34.151Z,23.90
2018-09-10T18:25:02.596Z,23.90
2018-09-10T18:27:31.002Z,23.80
2018-09-10T18:29:59.405Z,23.70
2018-09-10T18:32:27.825Z,23.70
2018-09-10T18:34:56.236Z,23.70
2018-09-10T18:37:24.651Z,23.70
2018-09-10T18:39:53.138Z,23.60
2018-09-10T18:42:21.597Z,23.40
2018-09-10T18:44:49.976Z,23.40
2018-09-10T18:47:18.410Z,23.30
2018-09-10T18:49:46.803Z,23.30
2018-09-10T18:52:15.231Z,23.30
2018-09-10T18:54:43.619Z,23.30
2018-09-10T18:57:12.106Z,23.00
2018-09-10T18:59:40.762Z,22.90
2018-09-10T19:02:09.232Z,22.90
2018-09-10T19:04:37.678Z,22.80
2018-09-10T19:07:06.718Z,22.70
2018-09-10T19:09:35.103Z,22.70
2018-09-10T19:12:03.530Z,22.70
2018-09-10T19:14:31.935Z,22.60
2018-09-10T19:17:01.255Z,22.50
2018-09-10T19:19:29.602Z,22.40
2018-09-10T19:21:58.062Z,22.40
2018-09-10T19:24:26.493Z,22.40
2018-09-10T19:26:54.925Z,22.20
2018-09-10T19:29:23.507Z,22.30
2018-09-10T19:31:51.963Z,22.30
2018-09-10T19:34:20.402Z,22.20
2018-09-10T19:36:48.851Z,22.20
2018-09-10T19:39:17.308Z,22.20
2018-09-10T19:41:45.755Z,22.10
2018-09-10T19:44:14.308Z,22.10
2018-09-10T19:46:42.640Z,22.00
2018-09-10T19:49:11.077Z,22.00
2018-09-10T19:51:39.517Z,21.80
2018-09-10T19:54:08.162Z,21.70
2018-09-10T19:56:36.618Z,21.70
2018-09-10T19:59:05.044Z,21.60
2018-09-10T20:01:33.495Z,21.60
2018-09-10T20:04:01.847Z,21.50
2018-09-10T20:06:30.233Z,21.40
2018-09-10T20:08:58.710Z,21.40
2018-09-10T20:11:27.181Z,21.50
2018-09-10T20:13:55.653Z,21.50
2018-09-10T20:16:24.367Z,21.50
2018-09-10T20:18:52.797Z,21.40
2018-09-10T20:21:21.245Z,21.20
2018-09-10T20:23:51.293Z,21.20
2018-09-10T20:26:19.729Z,21.30
2018-09-10T20:28:48.144Z,21.20
2018-09-10T20:31:16.556Z,21.10
2018-09-10T20:33:50.454Z,21.20
2018-09-10T20:36:18.927Z,21.20
2018-09-10T20:38:47.398Z,21.20
2018-09-10T20:41:16.182Z,21.20
2018-09-10T20:43:44.680Z,21.20
2018-09-10T20:46:13.153Z,21.20
2018-09-10T20:48:41.584Z,21.20
2018-09-10T20:51:10.003Z,21.00
2018-09-10T20:53:38.390Z,20.90
2018-09-10T20:56:07.418Z,20.90
2018-09-10T20:58:35.861Z,20.80
2018-09-10T21:01:04.333Z,20.60
2018-09-10T21:03:32.761Z,20.60
2018-09-10T21:06:01.193Z,20.50
2018-09-10T21:08:29.644Z,20.40
2018-09-10T21:10:58.754Z,20.40
2018-09-10T21:13:39.598Z,20.40
2018-09-10T21:16:08.042Z,20.30
2018-09-10T21:18:36.470Z,20.40
2018-09-10T21:21:04.982Z,20.40
2018-09-10T21:23:33.576Z,20.40
2018-09-10T21:26:01.978Z,20.20
2018-09-10T21:28:30.373Z,20.20
2018-09-10T21:30:58.867Z,20.20
2018-09-10T21:33:27.266Z,20.10
2018-09-10T21:35:55.687Z,20.00
2018-09-10T21:38:24.842Z,20.10
2018-09-10T21:40:53.290Z,20.30
2018-09-10T21:43:22.372Z,20.20
2018-09-10T21:45:50.810Z,20.10
2018-09-10T21:48:19.179Z,20.00
2018-09-10T21:50:47.585Z,20.00
2018-09-10T21:53:16.071Z,20.10
2018-09-10T21:55:44.555Z,20.00
2018-09-10T21:58:12.949Z,19.90
2018-09-10T22:00:48.857Z,19.80
2018-09-10T22:03:17.247Z,19.90
2018-09-10T22:05:45.710Z,19.80
2018-09-10T22:08:14.230Z,19.90
2018-09-10T22:10:42.598Z,19.90
2018-09-10T22:13:11.332Z,20.00
2018-09-10T22:15:39.771Z,20.00
2018-09-10T22:18:08.235Z,19.90
2018-09-10T22:20:36.621Z,19.90
2018-09-10T22:23:05.087Z,19.90
2018-09-10T22:25:34.241Z,19.70
2018-09-10T22:28:02.728Z,19.70
2018-09-10T22:30:31.145Z,19.70
2018-09-10T22:32:59.595Z,19.70
2018-09-10T22:35:27.996Z,19.70
2018-09-10T22:37:56.394Z,19.70
2018-09-10T22:40:24.877Z,19.60
2018-09-10T22:42:53.254Z,19.50
2018-09-10T22:45:22.236Z,19.40
2018-09-10T22:47:50.626Z,19.30
2018-09-10T22:50:19.053Z,19.30
2018-09-10T22:52:47.648Z,19.40
2018-09-10T22:55:16.313Z,19.40
2018-09-10T22:57:44.775Z,19.30
2018-09-10T23:00:13.258Z,19.40
2018-09-10T23:02:41.654Z,19.30
2018-09-10T23:05:10.187Z,19.10
2018-09-10T23:07:38.541Z,19.10
2018-09-10T23:10:07.145Z,19.00
2018-09-10T23:12:35.560Z,19.00
2018-09-10T23:15:03.993Z,19.10
2018-09-10T23:17:32.963Z,19.00
2018-09-10T23:20:01.348Z,18.90
2018-09-10T23:22:29.837Z,19.10
2018-09-10T23:24:58.404Z,19.10
2018-09-10T23:27:26.912Z,19.00
2018-09-10T23:29:55.292Z,19.00
2018-09-10T23:32:23.675Z,19.00
2018-09-10T23:34:52.060Z,19.00
2018-09-10T23:37:20.533Z,18.90
2018-09-10T23:39:49.073Z,18.80
2018-09-10T23:42:17.504Z,18.70
2018-09-10T23:44:45.879Z,18.80
2018-09-10T23:47:14.255Z,18.90
2018-09-10T23:49:42.678Z,18.90
2018-09-10T23:52:11.108Z,18.90
2018-09-10T23:54:39.482Z,19.00
2018-09-10T23:57:07.894Z,18.90
2018-09-10T23:59:36.332Z,18.90
